sensor_id;sensor_type;location;lat;lon;timestamp;pressure;altitude;pressure_sealevel;temperature;humidity
54588;BME280;40484;50.198;19.576;2023-02-10T07:15:37;103361.87;;;-0.30;44.33
54588;BME280;40484;50.198;19.576;2023-02-10T07:20:38;103370.45;;;-0.25;44.20
54588;BME280;40484;50.198;19.576;2023-02-10T07:25:40;103373.98;;;-0.39;44.59
54588;BME280;40484;50.198;19.576;2023-02-10T07:31:06;103362.98;;;0.01;44.05
54588;BME280;40484;50.198;19.576;2023-02-10T07:36:07;103367.64;;;-0.09;44.23
54588;BME280;40484;50.198;19.576;2023-02-10T07:41:09;103374.00;;;0.06;43.85
54588;BME280;40484;50.198;19.576;2023-02-10T07:46:11;103365.59;;;0.10;44.02
54588;BME280;40484;50.198;19.576;2023-02-10T07:51:13;103363.32;;;0.30;43.67
54588;BME280;40484;50.198;19.576;2023-02-10T07:56:14;103385.98;;;0.57;43.11
54588;BME280;40484;50.198;19.576;2023-02-10T08:01:16;103390.82;;;0.36;43.53
54588;BME280;40484;50.198;19.576;2023-02-10T08:06:21;103386.54;;;0.59;43.07
54588;BME280;40484;50.198;19.576;2023-02-10T08:11:23;103386.12;;;0.64;43.00
54588;BME280;40484;50.198;19.576;2023-02-10T08:16:25;103398.59;;;0.86;42.75
54588;BME280;40484;50.198;19.576;2023-02-10T08:21:26;103400.30;;;1.10;42.43
54588;BME280;40484;50.198;19.576;2023-02-10T08:26:28;103405.77;;;0.99;42.68
54588;BME280;40484;50.198;19.576;2023-02-10T08:31:29;103402.48;;;0.94;42.92
54588;BME280;40484;50.198;19.576;2023-02-10T08:36:31;103410.33;;;1.26;42.47
54588;BME280;40484;50.198;19.576;2023-02-10T08:41:32;103400.69;;;1.39;42.35
54588;BME280;40484;50.198;19.576;2023-02-10T08:46:34;103419.92;;;1.23;42.52
54588;BME280;40484;50.198;19.576;2023-02-10T08:51:36;103401.12;;;1.24;43.04
54588;BME280;40484;50.198;19.576;2023-02-10T08:56:39;103404.41;;;1.49;42.23
54588;BME280;40484;50.198;19.576;2023-02-10T09:01:41;103400.30;;;1.73;41.75
54588;BME280;40484;50.198;19.576;2023-02-10T09:06:42;103413.91;;;2.12;41.38
54588;BME280;40484;50.198;19.576;2023-02-10T09:11:44;103422.77;;;2.24;41.19
54588;BME280;40484;50.198;19.576;2023-02-10T09:17:11;103430.20;;;2.32;40.80
54588;BME280;40484;50.198;19.576;2023-02-10T09:22:12;103423.87;;;2.33;40.88
54588;BME280;40484;50.198;19.576;2023-02-10T09:27:15;103421.11;;;2.35;40.84
54588;BME280;40484;50.198;19.576;2023-02-10T09:32:16;103418.54;;;2.55;40.86
54588;BME280;40484;50.198;19.576;2023-02-10T09:37:18;103435.37;;;2.55;40.53
54588;BME280;40484;50.198;19.576;2023-02-10T09:42:34;103419.08;;;2.82;40.37
54588;BME280;40484;50.198;19.576;2023-02-10T09:47:38;103421.89;;;2.73;40.15
54588;BME280;40484;50.198;19.576;2023-02-10T10:03:10;103399.31;;;3.05;39.35
54588;BME280;40484;50.198;19.576;2023-02-10T10:08:25;103400.94;;;3.30;39.13
54588;BME280;40484;50.198;19.576;2023-02-10T10:13:27;103392.23;;;3.62;38.95
54588;BME280;40484;50.198;19.576;2023-02-10T10:24:25;103398.27;;;4.09;38.46
54588;BME280;40484;50.198;19.576;2023-02-10T10:29:43;103388.83;;;3.84;38.41
54588;BME280;40484;50.198;19.576;2023-02-10T10:34:42;103374.85;;;4.06;38.44
54588;BME280;40484;50.198;19.576;2023-02-10T10:39:45;103382.70;;;4.31;37.71
54588;BME280;40484;50.198;19.576;2023-02-10T10:44:48;103375.27;;;4.37;37.67
54588;BME280;40484;50.198;19.576;2023-02-10T10:49:50;103365.02;;;4.28;37.98
54588;BME280;40484;50.198;19.576;2023-02-10T10:54:52;103365.02;;;4.57;37.25
54588;BME280;40484;50.198;19.576;2023-02-10T11:00:17;103364.83;;;4.32;38.24
54588;BME280;40484;50.198;19.576;2023-02-10T11:11:12;103377.13;;;4.28;38.42
54588;BME280;40484;50.198;19.576;2023-02-10T11:16:15;103390.61;;;4.32;38.99
54588;BME280;40484;50.198;19.576;2023-02-10T11:21:17;103385.27;;;4.33;38.42
54588;BME280;40484;50.198;19.576;2023-02-10T11:26:20;103372.05;;;4.01;39.10
54588;BME280;40484;50.198;19.576;2023-02-10T11:36:36;103363.16;;;4.28;38.89
54588;BME280;40484;50.198;19.576;2023-02-10T11:41:37;103364.43;;;4.19;39.60
54588;BME280;40484;50.198;19.576;2023-02-10T11:46:39;103368.18;;;4.48;39.11
54588;BME280;40484;50.198;19.576;2023-02-10T11:51:50;103375.50;;;4.59;39.31
54588;BME280;40484;50.198;19.576;2023-02-10T11:57:01;103376.13;;;4.47;39.76
54588;BME280;40484;50.198;19.576;2023-02-10T12:08:32;103370.49;;;4.27;39.93
54588;BME280;40484;50.198;19.576;2023-02-10T12:13:41;103351.30;;;4.58;40.00
54588;BME280;40484;50.198;19.576;2023-02-10T12:34:22;103372.20;;;4.00;40.88
54588;BME280;40484;50.198;19.576;2023-02-10T12:39:24;103364.04;;;4.16;40.94
54588;BME280;40484;50.198;19.576;2023-02-10T12:50:33;103369.12;;;4.53;40.45
54588;BME280;40484;50.198;19.576;2023-02-10T12:55:59;103391.84;;;4.64;40.39
54588;BME280;40484;50.198;19.576;2023-02-10T13:01:08;103389.17;;;4.51;40.68
54588;BME280;40484;50.198;19.576;2023-02-10T13:11:20;103370.40;;;4.54;40.42
54588;BME280;40484;50.198;19.576;2023-02-10T13:16:20;103362.15;;;4.38;40.69
54588;BME280;40484;50.198;19.576;2023-02-10T13:21:37;103353.89;;;4.41;41.00
54588;BME280;40484;50.198;19.576;2023-02-10T13:27:17;103355.92;;;4.49;40.93
54588;BME280;40484;50.198;19.576;2023-02-10T13:37:50;103359.51;;;4.58;41.00
54588;BME280;40484;50.198;19.576;2023-02-10T13:42:54;103359.41;;;4.18;41.79
54588;BME280;40484;50.198;19.576;2023-02-10T13:47:59;103366.73;;;4.20;42.03
54588;BME280;40484;50.198;19.576;2023-02-10T13:53:23;103371.70;;;4.43;41.81
54588;BME280;40484;50.198;19.576;2023-02-10T14:08:34;103391.36;;;4.10;42.50
54588;BME280;40484;50.198;19.576;2023-02-10T14:14:14;103396.59;;;4.36;41.85
54588;BME280;40484;50.198;19.576;2023-02-10T14:24:27;103399.31;;;4.27;42.43
54588;BME280;40484;50.198;19.576;2023-02-10T14:29:31;103402.84;;;4.03;42.84
54588;BME280;40484;50.198;19.576;2023-02-10T14:34:36;103417.84;;;4.12;42.70
54588;BME280;40484;50.198;19.576;2023-02-10T14:39:39;103416.92;;;4.16;42.67
54588;BME280;40484;50.198;19.576;2023-02-10T14:44:47;103425.26;;;4.27;42.47
54588;BME280;40484;50.198;19.576;2023-02-10T14:49:49;103430.13;;;3.84;44.05
54588;BME280;40484;50.198;19.576;2023-02-10T14:54:51;103437.72;;;3.89;43.66
54588;BME280;40484;50.198;19.576;2023-02-10T14:59:56;103437.50;;;3.83;44.21
54588;BME280;40484;50.198;19.576;2023-02-10T15:04:59;103435.70;;;4.11;44.19
54588;BME280;40484;50.198;19.576;2023-02-10T15:10:06;103425.09;;;4.31;43.78
54588;BME280;40484;50.198;19.576;2023-02-10T15:15:09;103440.09;;;3.97;44.68
54588;BME280;40484;50.198;19.576;2023-02-10T15:20:35;103432.51;;;4.37;44.01
54588;BME280;40484;50.198;19.576;2023-02-10T15:25:37;103431.16;;;4.38;43.98
54588;BME280;40484;50.198;19.576;2023-02-10T15:30:59;103425.76;;;4.44;43.72
54588;BME280;40484;50.198;19.576;2023-02-10T15:36:19;103434.47;;;4.05;44.20
54588;BME280;40484;50.198;19.576;2023-02-10T15:41:36;103439.69;;;3.94;44.59
54588;BME280;40484;50.198;19.576;2023-02-10T15:46:37;103445.23;;;3.88;44.51
54588;BME280;40484;50.198;19.576;2023-02-10T15:51:44;103447.02;;;4.05;44.11
54588;BME280;40484;50.198;19.576;2023-02-10T15:57:00;103467.82;;;3.63;44.87
54588;BME280;40484;50.198;19.576;2023-02-10T16:02:04;103463.74;;;3.93;44.42
54588;BME280;40484;50.198;19.576;2023-02-10T16:07:30;103467.12;;;4.01;44.17
54588;BME280;40484;50.198;19.576;2023-02-10T16:12:32;103453.77;;;4.07;43.99
54588;BME280;40484;50.198;19.576;2023-02-10T16:17:37;103455.21;;;3.95;44.26
54588;BME280;40484;50.198;19.576;2023-02-10T16:22:37;103453.89;;;3.85;44.34
54588;BME280;40484;50.198;19.576;2023-02-10T16:27:38;103451.44;;;3.73;44.65
54588;BME280;40484;50.198;19.576;2023-02-10T16:32:40;103461.77;;;3.89;44.24
54588;BME280;40484;50.198;19.576;2023-02-10T16:37:42;103466.00;;;3.85;44.36
54588;BME280;40484;50.198;19.576;2023-02-10T16:42:44;103466.36;;;3.90;44.26
54588;BME280;40484;50.198;19.576;2023-02-10T16:47:45;103468.80;;;3.78;44.27
54588;BME280;40484;50.198;19.576;2023-02-10T16:52:47;103473.98;;;3.52;44.52
54588;BME280;40484;50.198;19.576;2023-02-10T16:57:48;103477.64;;;3.45;44.33
54588;BME280;40484;50.198;19.576;2023-02-10T17:02:50;103473.98;;;3.66;44.38
54588;BME280;40484;50.198;19.576;2023-02-10T17:07:52;103471.13;;;3.61;44.42
54588;BME280;40484;50.198;19.576;2023-02-10T17:12:53;103487.54;;;3.63;43.87
54588;BME280;40484;50.198;19.576;2023-02-10T17:17:55;103488.74;;;3.84;43.94
54588;BME280;40484;50.198;19.576;2023-02-10T17:22:56;103479.80;;;3.58;44.23
54588;BME280;40484;50.198;19.576;2023-02-10T17:27:58;103477.77;;;3.88;43.68
54588;BME280;40484;50.198;19.576;2023-02-10T17:33:00;103480.19;;;3.90;43.83
54588;BME280;40484;50.198;19.576;2023-02-10T17:38:01;103481.66;;;3.76;44.29
54588;BME280;40484;50.198;19.576;2023-02-10T17:44:06;103478.39;;;3.97;44.18
54588;BME280;40484;50.198;19.576;2023-02-10T17:49:07;103480.45;;;3.94;44.01
54588;BME280;40484;50.198;19.576;2023-02-10T17:54:09;103476.48;;;4.11;43.79
54588;BME280;40484;50.198;19.576;2023-02-10T17:59:12;103485.48;;;4.04;43.99
54588;BME280;40484;50.198;19.576;2023-02-10T18:04:13;103465.27;;;4.10;44.01
54588;BME280;40484;50.198;19.576;2023-02-10T18:09:17;103464.89;;;3.92;44.07
54588;BME280;40484;50.198;19.576;2023-02-10T18:14:18;103466.19;;;4.15;44.05
54588;BME280;40484;50.198;19.576;2023-02-10T18:19:20;103463.60;;;4.06;44.22
54588;BME280;40484;50.198;19.576;2023-02-10T18:26:30;103451.73;;;4.41;43.76
54588;BME280;40484;50.198;19.576;2023-02-10T18:31:31;103451.67;;;4.37;43.80
54588;BME280;40484;50.198;19.576;2023-02-10T18:36:33;103436.95;;;4.36;43.74
54588;BME280;40484;50.198;19.576;2023-02-10T18:41:34;103450.94;;;4.36;44.02
54588;BME280;40484;50.198;19.576;2023-02-10T18:46:36;103459.74;;;4.13;44.24
54588;BME280;40484;50.198;19.576;2023-02-10T18:51:37;103463.80;;;4.00;44.77
54588;BME280;40484;50.198;19.576;2023-02-10T18:56:39;103455.45;;;4.23;44.51
54588;BME280;40484;50.198;19.576;2023-02-10T19:01:40;103452.83;;;4.33;44.28
54588;BME280;40484;50.198;19.576;2023-02-10T19:06:42;103460.73;;;4.28;44.56
54588;BME280;40484;50.198;19.576;2023-02-10T19:11:44;103451.37;;;4.14;44.86
54588;BME280;40484;50.198;19.576;2023-02-10T19:16:45;103455.26;;;4.02;45.01
54588;BME280;40484;50.198;19.576;2023-02-10T19:21:47;103457.88;;;4.13;45.13
54588;BME280;40484;50.198;19.576;2023-02-10T19:26:48;103463.13;;;3.97;45.58
54588;BME280;40484;50.198;19.576;2023-02-10T19:31:50;103472.39;;;4.27;44.99
54588;BME280;40484;50.198;19.576;2023-02-10T19:36:51;103457.25;;;4.50;44.71
54588;BME280;40484;50.198;19.576;2023-02-10T19:41:53;103461.54;;;4.43;44.97
54588;BME280;40484;50.198;19.576;2023-02-10T19:46:55;103465.41;;;4.00;45.92
54588;BME280;40484;50.198;19.576;2023-02-10T19:51:57;103466.60;;;4.18;45.49
54588;BME280;40484;50.198;19.576;2023-02-10T19:56:58;103470.41;;;3.89;46.25
54588;BME280;40484;50.198;19.576;2023-02-10T20:02:00;103465.27;;;3.98;46.18
54588;BME280;40484;50.198;19.576;2023-02-10T20:07:02;103461.93;;;3.88;46.39
54588;BME280;40484;50.198;19.576;2023-02-10T20:12:29;103455.95;;;4.06;46.25
54588;BME280;40484;50.198;19.576;2023-02-10T20:17:31;103455.64;;;3.96;46.38
54588;BME280;40484;50.198;19.576;2023-02-10T20:22:32;103446.78;;;3.89;46.41
54588;BME280;40484;50.198;19.576;2023-02-10T20:27:34;103433.25;;;3.78;46.82
54588;BME280;40484;50.198;19.576;2023-02-10T20:32:36;103439.10;;;3.82;46.96
54588;BME280;40484;50.198;19.576;2023-02-10T20:37:37;103441.84;;;3.56;47.45
54588;BME280;40484;50.198;19.576;2023-02-10T20:42:39;103427.44;;;3.92;46.78
54588;BME280;40484;50.198;19.576;2023-02-10T20:47:40;103429.39;;;3.61;47.68
54588;BME280;40484;50.198;19.576;2023-02-10T20:52:42;103434.12;;;3.64;47.57
54588;BME280;40484;50.198;19.576;2023-02-10T20:57:45;103432.05;;;3.81;47.19
54588;BME280;40484;50.198;19.576;2023-02-10T21:02:47;103431.12;;;3.74;47.31
54588;BME280;40484;50.198;19.576;2023-02-10T21:07:49;103435.05;;;3.59;47.65
54588;BME280;40484;50.198;19.576;2023-02-10T21:12:52;103430.62;;;3.28;48.29
54588;BME280;40484;50.198;19.576;2023-02-10T21:17:55;103414.89;;;3.59;47.63
54588;BME280;40484;50.198;19.576;2023-02-10T21:22:57;103407.03;;;3.41;47.63
54588;BME280;40484;50.198;19.576;2023-02-10T21:27:59;103405.14;;;3.29;48.02
54588;BME280;40484;50.198;19.576;2023-02-10T21:33:00;103407.70;;;3.59;47.52
54588;BME280;40484;50.198;19.576;2023-02-10T21:38:02;103403.42;;;3.69;47.06
54588;BME280;40484;50.198;19.576;2023-02-10T21:43:04;103401.15;;;3.10;48.09
54588;BME280;40484;50.198;19.576;2023-02-10T21:48:07;103400.17;;;3.22;48.13
54588;BME280;40484;50.198;19.576;2023-02-10T21:53:08;103393.79;;;3.40;47.50
54588;BME280;40484;50.198;19.576;2023-02-10T21:58:34;103401.76;;;3.48;47.41
54588;BME280;40484;50.198;19.576;2023-02-10T22:03:36;103400.96;;;3.54;47.34
54588;BME280;40484;50.198;19.576;2023-02-10T22:08:38;103405.80;;;3.59;46.83
54588;BME280;40484;50.198;19.576;2023-02-10T22:13:40;103392.34;;;3.54;46.76
54588;BME280;40484;50.198;19.576;2023-02-10T22:18:43;103378.11;;;3.39;46.53
54588;BME280;40484;50.198;19.576;2023-02-10T22:23:44;103363.48;;;2.75;47.40
54588;BME280;40484;50.198;19.576;2023-02-10T22:28:46;103361.18;;;3.06;46.75
54588;BME280;40484;50.198;19.576;2023-02-10T22:33:53;103356.51;;;3.00;46.89
54588;BME280;40484;50.198;19.576;2023-02-10T22:38:55;103353.36;;;2.97;46.80
54588;BME280;40484;50.198;19.576;2023-02-10T22:43:58;103347.73;;;2.33;48.00
54588;BME280;40484;50.198;19.576;2023-02-10T22:49:00;103342.88;;;2.65;47.38
54588;BME280;40484;50.198;19.576;2023-02-10T22:54:04;103330.60;;;2.71;46.96
54588;BME280;40484;50.198;19.576;2023-02-10T22:59:07;103316.49;;;2.60;47.37
54588;BME280;40484;50.198;19.576;2023-02-10T23:04:11;103329.66;;;2.44;47.71
54588;BME280;40484;50.198;19.576;2023-02-10T23:09:13;103329.88;;;2.53;47.48
54588;BME280;40484;50.198;19.576;2023-02-10T23:14:15;103321.62;;;2.29;48.06
54588;BME280;40484;50.198;19.576;2023-02-10T23:19:16;103335.09;;;2.31;47.96
54588;BME280;40484;50.198;19.576;2023-02-10T23:24:18;103328.49;;;2.31;47.75
54588;BME280;40484;50.198;19.576;2023-02-10T23:29:19;103327.93;;;2.48;47.39
54588;BME280;40484;50.198;19.576;2023-02-10T23:34:46;103320.02;;;2.47;47.42
54588;BME280;40484;50.198;19.576;2023-02-10T23:39:48;103326.66;;;2.60;47.13
54588;BME280;40484;50.198;19.576;2023-02-10T23:44:49;103320.38;;;2.18;48.13
54588;BME280;40484;50.198;19.576;2023-02-10T23:49:51;103312.24;;;2.33;47.63
54588;BME280;40484;50.198;19.576;2023-02-10T23:54:53;103301.30;;;2.55;47.18
54588;BME280;40484;50.198;19.576;2023-02-10T23:59:54;103301.69;;;2.40;47.46
